sensor_id;sensor_type;location;lat;lon;timestamp;P1;durP1;ratioP1;P2;durP2;ratioP2
13891;SDS011;7016;48.172;8.058;2023-04-01T00:00:22;7.05;;;2.10;;
13891;SDS011;7016;48.172;8.058;2023-04-01T00:02:48;3.80;;;0.60;;
13891;SDS011;7016;48.172;8.058;2023-04-01T00:05:14;2.17;;;0.63;;
13891;SDS011;7016;48.172;8.058;2023-04-01T00:07:41;2.53;;;0.60;;
13891;SDS011;7016;48.172;8.058;2023-04-01T00:10:08;1.30;;;0.73;;
13891;SDS011;7016;48.172;8.058;2023-04-01T00:12:36;3.33;;;0.63;;
13891;SDS011;7016;48.172;8.058;2023-04-01T00:15:03;1.67;;;0.52;;
13891;SDS011;7016;48.172;8.058;2023-04-01T00:17:32;3.65;;;0.50;;
13891;SDS011;7016;48.172;8.058;2023-04-01T00:19:58;2.97;;;0.70;;
13891;SDS011;7016;48.172;8.058;2023-04-01T00:22:24;1.55;;;0.50;;
13891;SDS011;7016;48.172;8.058;2023-04-01T00:24:51;1.33;;;0.47;;
13891;SDS011;7016;48.172;8.058;2023-04-01T00:27:17;1.92;;;0.50;;
13891;SDS011;7016;48.172;8.058;2023-04-01T00:29:43;0.75;;;0.50;;
13891;SDS011;7016;48.172;8.058;2023-04-01T00:32:10;2.40;;;0.70;;
13891;SDS011;7016;48.172;8.058;2023-04-01T00:34:36;2.95;;;0.70;;
13891;SDS011;7016;48.172;8.058;2023-04-01T00:37:02;3.50;;;0.60;;
13891;SDS011;7016;48.172;8.058;2023-04-01T00:39:29;2.25;;;0.50;;
13891;SDS011;7016;48.172;8.058;2023-04-01T00:41:56;4.13;;;0.90;;
13891;SDS011;7016;48.172;8.058;2023-04-01T00:44:23;3.92;;;0.80;;
13891;SDS011;7016;48.172;8.058;2023-04-01T00:46:51;10.75;;;1.77;;
13891;SDS011;7016;48.172;8.058;2023-04-01T00:49:20;8.23;;;1.23;;
13891;SDS011;7016;48.172;8.058;2023-04-01T00:51:50;7.18;;;0.85;;
13891;SDS011;7016;48.172;8.058;2023-04-01T00:54:18;7.03;;;1.45;;
13891;SDS011;7016;48.172;8.058;2023-04-01T00:56:49;7.25;;;1.20;;
13891;SDS011;7016;48.172;8.058;2023-04-01T00:59:23;6.90;;;1.38;;
13891;SDS011;7016;48.172;8.058;2023-04-01T01:01:54;6.93;;;1.35;;
13891;SDS011;7016;48.172;8.058;2023-04-01T01:04:27;7.47;;;1.98;;
13891;SDS011;7016;48.172;8.058;2023-04-01T01:06:56;11.48;;;1.63;;
13891;SDS011;7016;48.172;8.058;2023-04-01T01:12:23;8.15;;;1.60;;
13891;SDS011;7016;48.172;8.058;2023-04-01T01:17:44;5.15;;;1.45;;
13891;SDS011;7016;48.172;8.058;2023-04-01T01:22:54;5.95;;;1.20;;
13891;SDS011;7016;48.172;8.058;2023-04-01T01:26:14;5.10;;;1.15;;
13891;SDS011;7016;48.172;8.058;2023-04-01T01:36:37;9.35;;;1.55;;
13891;SDS011;7016;48.172;8.058;2023-04-01T01:39:05;7.22;;;1.50;;
13891;SDS011;7016;48.172;8.058;2023-04-01T01:41:34;10.68;;;1.70;;
13891;SDS011;7016;48.172;8.058;2023-04-01T01:44:01;10.43;;;1.67;;
13891;SDS011;7016;48.172;8.058;2023-04-01T01:46:31;13.35;;;2.00;;
13891;SDS011;7016;48.172;8.058;2023-04-01T01:48:57;12.50;;;2.28;;
13891;SDS011;7016;48.172;8.058;2023-04-01T01:51:25;15.27;;;2.72;;
13891;SDS011;7016;48.172;8.058;2023-04-01T01:53:52;13.75;;;2.50;;
13891;SDS011;7016;48.172;8.058;2023-04-01T01:56:19;13.13;;;2.60;;
13891;SDS011;7016;48.172;8.058;2023-04-01T01:58:52;15.77;;;2.78;;
13891;SDS011;7016;48.172;8.058;2023-04-01T02:01:27;16.08;;;2.72;;
13891;SDS011;7016;48.172;8.058;2023-04-01T02:03:56;13.77;;;2.35;;
13891;SDS011;7016;48.172;8.058;2023-04-01T02:06:23;14.95;;;2.25;;
13891;SDS011;7016;48.172;8.058;2023-04-01T02:11:23;20.60;;;3.38;;
13891;SDS011;7016;48.172;8.058;2023-04-01T02:13:55;16.05;;;2.53;;
13891;SDS011;7016;48.172;8.058;2023-04-01T02:19:17;12.52;;;2.22;;
13891;SDS011;7016;48.172;8.058;2023-04-01T02:21:49;13.65;;;2.67;;
13891;SDS011;7016;48.172;8.058;2023-04-01T02:24:18;11.77;;;2.60;;
13891;SDS011;7016;48.172;8.058;2023-04-01T02:26:47;15.60;;;2.38;;
13891;SDS011;7016;48.172;8.058;2023-04-01T02:29:15;14.10;;;2.58;;
13891;SDS011;7016;48.172;8.058;2023-04-01T02:31:43;19.33;;;2.97;;
13891;SDS011;7016;48.172;8.058;2023-04-01T02:34:08;11.05;;;2.25;;
13891;SDS011;7016;48.172;8.058;2023-04-01T02:36:35;14.02;;;2.13;;
13891;SDS011;7016;48.172;8.058;2023-04-01T02:39:01;14.85;;;2.70;;
13891;SDS011;7016;48.172;8.058;2023-04-01T02:41:29;14.38;;;2.58;;
13891;SDS011;7016;48.172;8.058;2023-04-01T02:43:55;11.57;;;2.03;;
13891;SDS011;7016;48.172;8.058;2023-04-01T02:46:23;11.68;;;2.35;;
13891;SDS011;7016;48.172;8.058;2023-04-01T02:48:49;14.13;;;2.20;;
13891;SDS011;7016;48.172;8.058;2023-04-01T02:51:15;12.77;;;2.35;;
13891;SDS011;7016;48.172;8.058;2023-04-01T02:53:40;10.52;;;1.60;;
13891;SDS011;7016;48.172;8.058;2023-04-01T02:56:06;12.27;;;2.40;;
13891;SDS011;7016;48.172;8.058;2023-04-01T02:58:32;10.20;;;1.80;;
13891;SDS011;7016;48.172;8.058;2023-04-01T03:00:58;10.95;;;2.00;;
13891;SDS011;7016;48.172;8.058;2023-04-01T03:03:24;12.13;;;2.30;;
13891;SDS011;7016;48.172;8.058;2023-04-01T03:05:50;9.88;;;1.98;;
13891;SDS011;7016;48.172;8.058;2023-04-01T03:08:16;10.02;;;1.60;;
13891;SDS011;7016;48.172;8.058;2023-04-01T03:10:41;14.75;;;2.50;;
13891;SDS011;7016;48.172;8.058;2023-04-01T03:13:07;12.35;;;2.00;;
13891;SDS011;7016;48.172;8.058;2023-04-01T03:15:33;8.05;;;1.80;;
13891;SDS011;7016;48.172;8.058;2023-04-01T03:17:58;11.88;;;1.48;;
13891;SDS011;7016;48.172;8.058;2023-04-01T03:20:24;6.90;;;1.70;;
13891;SDS011;7016;48.172;8.058;2023-04-01T03:22:52;8.25;;;1.85;;
13891;SDS011;7016;48.172;8.058;2023-04-01T03:25:18;4.68;;;1.15;;
13891;SDS011;7016;48.172;8.058;2023-04-01T03:27:44;11.18;;;2.28;;
13891;SDS011;7016;48.172;8.058;2023-04-01T03:30:09;9.90;;;2.13;;
13891;SDS011;7016;48.172;8.058;2023-04-01T03:32:35;7.35;;;1.58;;
13891;SDS011;7016;48.172;8.058;2023-04-01T03:35:02;4.55;;;1.40;;
13891;SDS011;7016;48.172;8.058;2023-04-01T03:37:28;8.98;;;1.73;;
13891;SDS011;7016;48.172;8.058;2023-04-01T03:39:54;14.93;;;2.22;;
13891;SDS011;7016;48.172;8.058;2023-04-01T03:42:19;15.90;;;2.30;;
13891;SDS011;7016;48.172;8.058;2023-04-01T03:44:45;10.23;;;2.00;;
13891;SDS011;7016;48.172;8.058;2023-04-01T03:47:11;14.85;;;2.15;;
13891;SDS011;7016;48.172;8.058;2023-04-01T03:49:37;12.80;;;2.22;;
13891;SDS011;7016;48.172;8.058;2023-04-01T03:52:02;14.80;;;2.72;;
13891;SDS011;7016;48.172;8.058;2023-04-01T03:54:28;18.85;;;3.05;;
13891;SDS011;7016;48.172;8.058;2023-04-01T03:56:54;13.07;;;2.50;;
13891;SDS011;7016;48.172;8.058;2023-04-01T03:59:20;11.82;;;2.22;;
13891;SDS011;7016;48.172;8.058;2023-04-01T04:01:46;15.13;;;3.00;;
13891;SDS011;7016;48.172;8.058;2023-04-01T04:04:12;10.57;;;1.88;;
13891;SDS011;7016;48.172;8.058;2023-04-01T04:06:39;17.02;;;2.67;;
13891;SDS011;7016;48.172;8.058;2023-04-01T04:09:05;11.25;;;1.77;;
13891;SDS011;7016;48.172;8.058;2023-04-01T04:11:31;6.43;;;1.65;;
13891;SDS011;7016;48.172;8.058;2023-04-01T04:13:58;12.52;;;1.92;;
13891;SDS011;7016;48.172;8.058;2023-04-01T04:16:23;8.25;;;1.40;;
13891;SDS011;7016;48.172;8.058;2023-04-01T04:18:49;8.00;;;1.55;;
13891;SDS011;7016;48.172;8.058;2023-04-01T04:21:16;9.55;;;1.60;;
13891;SDS011;7016;48.172;8.058;2023-04-01T04:23:42;10.02;;;2.45;;
13891;SDS011;7016;48.172;8.058;2023-04-01T04:26:09;9.45;;;1.80;;
13891;SDS011;7016;48.172;8.058;2023-04-01T04:28:36;7.40;;;1.30;;
13891;SDS011;7016;48.172;8.058;2023-04-01T04:31:02;5.40;;;1.25;;
13891;SDS011;7016;48.172;8.058;2023-04-01T04:33:30;6.70;;;1.13;;
13891;SDS011;7016;48.172;8.058;2023-04-01T04:35:57;6.78;;;1.15;;
13891;SDS011;7016;48.172;8.058;2023-04-01T04:38:23;6.90;;;1.30;;
13891;SDS011;7016;48.172;8.058;2023-04-01T04:40:49;9.30;;;1.77;;
13891;SDS011;7016;48.172;8.058;2023-04-01T04:43:15;5.30;;;1.40;;
13891;SDS011;7016;48.172;8.058;2023-04-01T04:45:42;5.78;;;1.73;;
13891;SDS011;7016;48.172;8.058;2023-04-01T04:48:08;8.52;;;1.33;;
13891;SDS011;7016;48.172;8.058;2023-04-01T04:50:35;9.13;;;1.50;;
13891;SDS011;7016;48.172;8.058;2023-04-01T04:53:01;10.98;;;1.60;;
13891;SDS011;7016;48.172;8.058;2023-04-01T04:55:27;10.93;;;1.70;;
13891;SDS011;7016;48.172;8.058;2023-04-01T04:57:53;7.57;;;1.45;;
13891;SDS011;7016;48.172;8.058;2023-04-01T05:00:19;7.72;;;1.33;;
13891;SDS011;7016;48.172;8.058;2023-04-01T05:02:45;9.55;;;1.80;;
13891;SDS011;7016;48.172;8.058;2023-04-01T05:05:11;6.03;;;1.60;;
13891;SDS011;7016;48.172;8.058;2023-04-01T05:07:37;8.05;;;1.77;;
13891;SDS011;7016;48.172;8.058;2023-04-01T05:10:02;7.97;;;1.63;;
13891;SDS011;7016;48.172;8.058;2023-04-01T05:12:29;7.25;;;1.63;;
13891;SDS011;7016;48.172;8.058;2023-04-01T05:14:55;10.32;;;1.50;;
13891;SDS011;7016;48.172;8.058;2023-04-01T05:17:21;5.82;;;1.30;;
13891;SDS011;7016;48.172;8.058;2023-04-01T05:19:47;7.55;;;1.60;;
13891;SDS011;7016;48.172;8.058;2023-04-01T05:22:12;10.13;;;1.60;;
13891;SDS011;7016;48.172;8.058;2023-04-01T05:24:38;7.03;;;1.65;;
13891;SDS011;7016;48.172;8.058;2023-04-01T05:27:04;10.27;;;1.52;;
13891;SDS011;7016;48.172;8.058;2023-04-01T05:29:29;7.13;;;1.70;;
13891;SDS011;7016;48.172;8.058;2023-04-01T05:31:55;11.10;;;1.60;;
13891;SDS011;7016;48.172;8.058;2023-04-01T05:34:21;11.30;;;1.88;;
13891;SDS011;7016;48.172;8.058;2023-04-01T05:36:46;8.07;;;1.60;;
13891;SDS011;7016;48.172;8.058;2023-04-01T05:39:12;10.23;;;1.58;;
13891;SDS011;7016;48.172;8.058;2023-04-01T05:41:38;9.60;;;1.60;;
13891;SDS011;7016;48.172;8.058;2023-04-01T05:44:04;7.28;;;1.50;;
13891;SDS011;7016;48.172;8.058;2023-04-01T05:46:30;8.57;;;1.60;;
13891;SDS011;7016;48.172;8.058;2023-04-01T05:48:57;9.18;;;2.50;;
13891;SDS011;7016;48.172;8.058;2023-04-01T05:51:22;15.85;;;2.67;;
13891;SDS011;7016;48.172;8.058;2023-04-01T05:53:48;11.63;;;2.33;;
13891;SDS011;7016;48.172;8.058;2023-04-01T05:56:14;9.02;;;1.60;;
13891;SDS011;7016;48.172;8.058;2023-04-01T05:58:40;7.38;;;2.10;;
13891;SDS011;7016;48.172;8.058;2023-04-01T06:01:07;11.32;;;2.50;;
13891;SDS011;7016;48.172;8.058;2023-04-01T06:03:35;10.15;;;2.42;;
13891;SDS011;7016;48.172;8.058;2023-04-01T06:06:01;8.98;;;1.80;;
13891;SDS011;7016;48.172;8.058;2023-04-01T06:08:27;10.90;;;2.13;;
13891;SDS011;7016;48.172;8.058;2023-04-01T06:49:06;8.60;;;1.50;;
13891;SDS011;7016;48.172;8.058;2023-04-01T06:54:34;6.43;;;1.65;;
13891;SDS011;7016;48.172;8.058;2023-04-01T06:57:51;5.32;;;1.20;;
13891;SDS011;7016;48.172;8.058;2023-04-01T06:59:54;8.00;;;1.60;;
13891;SDS011;7016;48.172;8.058;2023-04-01T07:02:39;6.50;;;1.58;;
13891;SDS011;7016;48.172;8.058;2023-04-01T07:05:10;8.35;;;1.77;;
13891;SDS011;7016;48.172;8.058;2023-04-01T07:07:39;5.00;;;1.33;;
13891;SDS011;7016;48.172;8.058;2023-04-01T07:10:11;7.47;;;1.20;;
13891;SDS011;7016;48.172;8.058;2023-04-01T07:12:51;5.57;;;1.35;;
13891;SDS011;7016;48.172;8.058;2023-04-01T07:15:25;7.15;;;1.75;;
13891;SDS011;7016;48.172;8.058;2023-04-01T07:18:02;6.95;;;1.50;;
13891;SDS011;7016;48.172;8.058;2023-04-01T07:20:35;5.47;;;1.38;;
13891;SDS011;7016;48.172;8.058;2023-04-01T07:23:04;5.43;;;1.25;;
13891;SDS011;7016;48.172;8.058;2023-04-01T07:28:13;7.68;;;1.10;;
13891;SDS011;7016;48.172;8.058;2023-04-01T07:36:08;3.97;;;1.13;;
13891;SDS011;7016;48.172;8.058;2023-04-01T07:38:58;5.75;;;1.17;;
13891;SDS011;7016;48.172;8.058;2023-04-01T07:47:23;3.88;;;0.95;;
13891;SDS011;7016;48.172;8.058;2023-04-01T08:00:24;8.88;;;1.30;;
13891;SDS011;7016;48.172;8.058;2023-04-01T08:06:27;5.93;;;1.02;;
13891;SDS011;7016;48.172;8.058;2023-04-01T08:17:26;5.68;;;1.70;;
13891;SDS011;7016;48.172;8.058;2023-04-01T08:20:04;6.78;;;1.55;;
13891;SDS011;7016;48.172;8.058;2023-04-01T08:22:56;5.80;;;1.67;;
13891;SDS011;7016;48.172;8.058;2023-04-01T08:25:26;6.68;;;1.40;;
13891;SDS011;7016;48.172;8.058;2023-04-01T08:27:56;6.25;;;1.48;;
13891;SDS011;7016;48.172;8.058;2023-04-01T08:35:54;6.22;;;1.15;;
13891;SDS011;7016;48.172;8.058;2023-04-01T08:39:12;5.70;;;1.38;;
13891;SDS011;7016;48.172;8.058;2023-04-01T08:49:29;6.20;;;1.52;;
13891;SDS011;7016;48.172;8.058;2023-04-01T08:52:31;10.38;;;2.20;;
13891;SDS011;7016;48.172;8.058;2023-04-01T08:58:01;7.28;;;1.58;;
13891;SDS011;7016;48.172;8.058;2023-04-01T09:04:08;6.22;;;1.08;;
13891;SDS011;7016;48.172;8.058;2023-04-01T09:13:05;3.80;;;1.13;;
13891;SDS011;7016;48.172;8.058;2023-04-01T09:16:00;2.95;;;1.17;;
13891;SDS011;7016;48.172;8.058;2023-04-01T09:21:46;5.15;;;1.02;;
13891;SDS011;7016;48.172;8.058;2023-04-01T09:35:47;3.72;;;1.33;;
13891;SDS011;7016;48.172;8.058;2023-04-01T09:38:29;4.20;;;1.30;;
13891;SDS011;7016;48.172;8.058;2023-04-01T10:03:58;7.07;;;1.27;;
13891;SDS011;7016;48.172;8.058;2023-04-01T10:06:51;4.25;;;1.40;;
13891;SDS011;7016;48.172;8.058;2023-04-01T10:18:13;2.92;;;1.10;;
13891;SDS011;7016;48.172;8.058;2023-04-01T10:45:57;4.07;;;1.38;;
13891;SDS011;7016;48.172;8.058;2023-04-01T10:54:20;3.85;;;0.82;;
13891;SDS011;7016;48.172;8.058;2023-04-01T10:56:51;4.10;;;1.23;;
13891;SDS011;7016;48.172;8.058;2023-04-01T11:35:29;3.75;;;1.10;;
13891;SDS011;7016;48.172;8.058;2023-04-01T11:38:19;3.85;;;0.93;;
13891;SDS011;7016;48.172;8.058;2023-04-01T11:49:44;3.83;;;0.90;;
13891;SDS011;7016;48.172;8.058;2023-04-01T11:55:25;3.13;;;0.90;;
13891;SDS011;7016;48.172;8.058;2023-04-01T12:06:44;5.07;;;0.98;;
13891;SDS011;7016;48.172;8.058;2023-04-01T12:17:58;4.97;;;1.13;;
13891;SDS011;7016;48.172;8.058;2023-04-01T12:23:08;7.07;;;1.30;;
13891;SDS011;7016;48.172;8.058;2023-04-01T12:33:44;4.78;;;1.10;;
13891;SDS011;7016;48.172;8.058;2023-04-01T12:55:40;2.38;;;0.73;;
13891;SDS011;7016;48.172;8.058;2023-04-01T12:58:15;3.50;;;0.88;;
13891;SDS011;7016;48.172;8.058;2023-04-01T13:06:42;2.45;;;0.77;;
13891;SDS011;7016;48.172;8.058;2023-04-01T13:34:08;3.92;;;0.75;;
13891;SDS011;7016;48.172;8.058;2023-04-01T13:55:55;5.38;;;0.98;;
13891;SDS011;7016;48.172;8.058;2023-04-01T14:09:00;3.70;;;1.10;;
13891;SDS011;7016;48.172;8.058;2023-04-01T14:11:40;3.25;;;1.10;;
13891;SDS011;7016;48.172;8.058;2023-04-01T14:14:53;4.18;;;1.35;;
13891;SDS011;7016;48.172;8.058;2023-04-01T14:17:30;3.97;;;1.17;;
13891;SDS011;7016;48.172;8.058;2023-04-01T14:50:53;3.58;;;0.90;;
13891;SDS011;7016;48.172;8.058;2023-04-01T14:53:31;4.43;;;1.25;;
13891;SDS011;7016;48.172;8.058;2023-04-01T14:56:03;3.35;;;1.20;;
13891;SDS011;7016;48.172;8.058;2023-04-01T14:58:41;4.40;;;1.00;;
13891;SDS011;7016;48.172;8.058;2023-04-01T15:09:00;2.30;;;0.70;;
13891;SDS011;7016;48.172;8.058;2023-04-01T15:14:26;3.63;;;1.00;;
13891;SDS011;7016;48.172;8.058;2023-04-01T15:22:51;14.80;;;1.10;;
13891;SDS011;7016;48.172;8.058;2023-04-01T15:31:21;5.30;;;2.33;;
13891;SDS011;7016;48.172;8.058;2023-04-01T15:36:38;3.60;;;1.40;;
13891;SDS011;7016;48.172;8.058;2023-04-01T15:42:23;5.45;;;1.50;;
13891;SDS011;7016;48.172;8.058;2023-04-01T15:53:50;3.33;;;0.90;;
13891;SDS011;7016;48.172;8.058;2023-04-01T15:56:28;2.95;;;1.05;;
13891;SDS011;7016;48.172;8.058;2023-04-01T16:16:36;1.50;;;0.60;;
13891;SDS011;7016;48.172;8.058;2023-04-01T16:21:44;2.47;;;1.00;;
13891;SDS011;7016;48.172;8.058;2023-04-01T16:24:24;2.65;;;0.90;;
13891;SDS011;7016;48.172;8.058;2023-04-01T16:27:16;4.70;;;0.90;;
13891;SDS011;7016;48.172;8.058;2023-04-01T16:33:08;3.03;;;0.80;;
13891;SDS011;7016;48.172;8.058;2023-04-01T16:35:57;4.63;;;1.10;;
13891;SDS011;7016;48.172;8.058;2023-04-01T16:38:39;2.65;;;0.70;;
13891;SDS011;7016;48.172;8.058;2023-04-01T16:41:19;1.63;;;0.70;;
13891;SDS011;7016;48.172;8.058;2023-04-01T16:43:51;2.40;;;0.60;;
13891;SDS011;7016;48.172;8.058;2023-04-01T16:46:56;2.92;;;1.10;;
13891;SDS011;7016;48.172;8.058;2023-04-01T16:49:32;2.63;;;0.77;;
13891;SDS011;7016;48.172;8.058;2023-04-01T16:54:52;2.58;;;0.75;;
13891;SDS011;7016;48.172;8.058;2023-04-01T16:57:36;2.88;;;1.10;;
13891;SDS011;7016;48.172;8.058;2023-04-01T17:00:22;2.20;;;0.90;;
13891;SDS011;7016;48.172;8.058;2023-04-01T17:14:02;4.05;;;1.50;;
13891;SDS011;7016;48.172;8.058;2023-04-01T17:17:17;5.78;;;1.98;;
13891;SDS011;7016;48.172;8.058;2023-04-01T17:20:12;2.28;;;1.25;;
13891;SDS011;7016;48.172;8.058;2023-04-01T17:22:47;5.38;;;1.55;;
13891;SDS011;7016;48.172;8.058;2023-04-01T17:38:46;5.65;;;1.48;;
13891;SDS011;7016;48.172;8.058;2023-04-01T17:41:54;4.13;;;1.63;;
13891;SDS011;7016;48.172;8.058;2023-04-01T17:52:30;4.50;;;1.13;;
13891;SDS011;7016;48.172;8.058;2023-04-01T17:58:20;5.07;;;1.70;;
13891;SDS011;7016;48.172;8.058;2023-04-01T18:15:10;3.13;;;1.30;;
13891;SDS011;7016;48.172;8.058;2023-04-01T18:18:06;4.20;;;1.50;;
13891;SDS011;7016;48.172;8.058;2023-04-01T18:23:44;4.68;;;1.50;;
13891;SDS011;7016;48.172;8.058;2023-04-01T18:26:22;5.25;;;1.40;;
13891;SDS011;7016;48.172;8.058;2023-04-01T18:28:54;3.05;;;1.20;;
13891;SDS011;7016;48.172;8.058;2023-04-01T18:31:26;2.60;;;0.95;;
13891;SDS011;7016;48.172;8.058;2023-04-01T18:34:07;2.63;;;1.10;;
13891;SDS011;7016;48.172;8.058;2023-04-01T18:36:45;4.10;;;1.15;;
13891;SDS011;7016;48.172;8.058;2023-04-01T18:39:30;2.47;;;0.98;;
13891;SDS011;7016;48.172;8.058;2023-04-01T18:44:57;4.72;;;1.60;;
13891;SDS011;7016;48.172;8.058;2023-04-01T18:47:48;3.17;;;1.20;;
13891;SDS011;7016;48.172;8.058;2023-04-01T18:50:25;7.35;;;1.60;;
13891;SDS011;7016;48.172;8.058;2023-04-01T18:53:29;3.63;;;1.67;;
13891;SDS011;7016;48.172;8.058;2023-04-01T18:56:35;4.20;;;1.20;;
13891;SDS011;7016;48.172;8.058;2023-04-01T19:01:57;4.63;;;1.92;;
13891;SDS011;7016;48.172;8.058;2023-04-01T19:04:36;12.68;;;6.30;;
13891;SDS011;7016;48.172;8.058;2023-04-01T19:10:06;16.50;;;9.30;;
13891;SDS011;7016;48.172;8.058;2023-04-01T19:12:41;12.10;;;6.97;;
13891;SDS011;7016;48.172;8.058;2023-04-01T19:20:55;6.00;;;2.35;;
13891;SDS011;7016;48.172;8.058;2023-04-01T19:38:09;7.65;;;1.75;;
13891;SDS011;7016;48.172;8.058;2023-04-01T19:40:50;4.30;;;1.35;;
13891;SDS011;7016;48.172;8.058;2023-04-01T19:43:39;4.75;;;2.17;;
13891;SDS011;7016;48.172;8.058;2023-04-01T20:02:54;3.30;;;1.65;;
13891;SDS011;7016;48.172;8.058;2023-04-01T20:09:00;8.27;;;3.05;;
13891;SDS011;7016;48.172;8.058;2023-04-01T20:13:52;4.85;;;2.40;;
13891;SDS011;7016;48.172;8.058;2023-04-01T20:22:00;6.10;;;2.50;;
13891;SDS011;7016;48.172;8.058;2023-04-01T20:24:35;6.18;;;2.90;;
13891;SDS011;7016;48.172;8.058;2023-04-01T20:41:13;4.28;;;1.33;;
13891;SDS011;7016;48.172;8.058;2023-04-01T20:46:30;2.22;;;0.75;;
13891;SDS011;7016;48.172;8.058;2023-04-01T20:51:32;3.20;;;1.70;;
13891;SDS011;7016;48.172;8.058;2023-04-01T20:59:23;1.80;;;0.77;;
13891;SDS011;7016;48.172;8.058;2023-04-01T21:13:16;1.35;;;0.98;;
13891;SDS011;7016;48.172;8.058;2023-04-01T21:35:38;4.93;;;2.40;;
13891;SDS011;7016;48.172;8.058;2023-04-01T21:38:31;4.63;;;1.30;;
13891;SDS011;7016;48.172;8.058;2023-04-01T21:43:53;3.17;;;1.13;;
13891;SDS011;7016;48.172;8.058;2023-04-01T21:55:17;8.15;;;4.55;;
13891;SDS011;7016;48.172;8.058;2023-04-01T21:58:14;4.03;;;1.70;;
13891;SDS011;7016;48.172;8.058;2023-04-01T22:00:53;3.10;;;1.83;;
13891;SDS011;7016;48.172;8.058;2023-04-01T22:11:44;4.22;;;2.13;;
13891;SDS011;7016;48.172;8.058;2023-04-01T22:14:38;5.32;;;1.60;;
13891;SDS011;7016;48.172;8.058;2023-04-01T22:20:38;3.75;;;1.45;;
13891;SDS011;7016;48.172;8.058;2023-04-01T22:22:56;3.42;;;1.55;;
13891;SDS011;7016;48.172;8.058;2023-04-01T22:28:38;4.25;;;1.50;;
13891;SDS011;7016;48.172;8.058;2023-04-01T22:31:03;4.53;;;1.45;;
13891;SDS011;7016;48.172;8.058;2023-04-01T22:33:41;1.95;;;1.10;;
13891;SDS011;7016;48.172;8.058;2023-04-01T22:36:53;3.60;;;1.45;;
13891;SDS011;7016;48.172;8.058;2023-04-01T22:39:23;5.32;;;1.50;;
13891;SDS011;7016;48.172;8.058;2023-04-01T22:42:13;5.82;;;1.50;;
13891;SDS011;7016;48.172;8.058;2023-04-01T22:45:02;3.78;;;1.73;;
13891;SDS011;7016;48.172;8.058;2023-04-01T22:47:44;4.43;;;1.42;;
13891;SDS011;7016;48.172;8.058;2023-04-01T22:55:51;3.17;;;1.25;;
13891;SDS011;7016;48.172;8.058;2023-04-01T22:58:20;4.75;;;1.30;;
13891;SDS011;7016;48.172;8.058;2023-04-01T23:01:05;3.65;;;1.30;;
13891;SDS011;7016;48.172;8.058;2023-04-01T23:03:36;2.78;;;1.10;;
13891;SDS011;7016;48.172;8.058;2023-04-01T23:06:05;4.00;;;1.33;;
13891;SDS011;7016;48.172;8.058;2023-04-01T23:08:45;2.90;;;1.20;;
13891;SDS011;7016;48.172;8.058;2023-04-01T23:11:28;4.63;;;1.50;;
13891;SDS011;7016;48.172;8.058;2023-04-01T23:16:47;2.50;;;1.20;;
13891;SDS011;7016;48.172;8.058;2023-04-01T23:26:56;5.65;;;1.50;;
13891;SDS011;7016;48.172;8.058;2023-04-01T23:29:28;3.75;;;1.20;;
13891;SDS011;7016;48.172;8.058;2023-04-01T23:31:58;5.60;;;1.52;;
13891;SDS011;7016;48.172;8.058;2023-04-01T23:34:25;2.97;;;1.10;;
13891;SDS011;7016;48.172;8.058;2023-04-01T23:37:15;2.90;;;1.33;;
13891;SDS011;7016;48.172;8.058;2023-04-01T23:39:44;2.78;;;1.20;;
13891;SDS011;7016;48.172;8.058;2023-04-01T23:42:19;5.28;;;1.60;;
13891;SDS011;7016;48.172;8.058;2023-04-01T23:44:53;6.32;;;1.30;;
13891;SDS011;7016;48.172;8.058;2023-04-01T23:47:44;3.30;;;1.23;;
13891;SDS011;7016;48.172;8.058;2023-04-01T23:50:11;5.53;;;1.50;;
13891;SDS011;7016;48.172;8.058;2023-04-01T23:52:48;2.97;;;1.00;;
13891;SDS011;7016;48.172;8.058;2023-04-01T23:55:24;4.43;;;1.55;;
13891;SDS011;7016;48.172;8.058;2023-04-01T23:58:02;3.35;;;1.50;;
